Portada
METAR-TAF:

METAR-TAF

Aeroports :

Marsa Alam, Egipte

latitud: 25-33-25N, longitud: 34-35-01E, altitud: 77 m

Observació

L'informe es va fer fa 53 minuts, a les 22:00 UTC
Vent 13 kt del Nord-Oest
Temperatura 34°C
Humitat 20%
Pressió 1004 hPa
Visibilitat 10 km o més
sense núvols per sota de 1500 mi sense presència de cumulonimbus.

METAR: HEMA 192200Z 32013KT CAVOK 34/08 Q1004 NOSIG

Hora: 00:53 (22:53 UTC)

Pronòstic

L'informe es va fer fa 5 hores i 53 minuts, a les 17:00 UTC
Pronòstic vàlid del 19 a les 18 UTC al 20 a les 24 UTC
Vent 15 kt del Nord/Nord-Oest
Visibilitat 10 km o més
sense núvols per sota de 1500 mi sense presència de cumulonimbus.

TAF: HEMA 191700Z 1918/2024 34015KT CAVOK

Observacions i pronòstics meteorològics de més de 4000 aeroports (METAR i TAF).

Les estacions disponibles són els punts grocs i vermells al mapa.

Posi el ratolí al punt desitjat per veure el nom de l'estació.

Feu clic per veure les observacions i els pronòstics meteorològics.

Per canviar el mapa: feu clic els botons verds amb una creu de color negre per apropar; al botó verd amb un guió per allunyar la imatge; o en les fletxes verdes per a mapes adjacents.


METAR-TAF: